Time;durP1;ratioP1;P1;durP2;ratioP2;P2;SDS_P1;SDS_P2;PMS_P1;PMS_P2;Temp;Humidity;BMP_temperature;BMP_pressure;BME280_temperature;BME280_humidity;BME280_pressure;Samples;Min_cycle;Max_cycle;Signal;HPM_P1;HPM_P2
2022/06/12 00:02:12;;;;;;;4.75;3.50;;;19.70;96.90;;;19.85;100.00;101001.66;5044475;28;20045;-77
2022/06/12 00:04:39;;;;;;;7.32;3.70;;;19.70;97.00;;;19.78;100.00;100998.44;5027659;28;20060;-77
2022/06/12 00:07:06;;;;;;;4.28;3.75;;;19.60;97.00;;;19.61;100.00;101001.97;5043871;28;20071;-77
2022/06/12 00:09:34;;;;;;;7.03;4.05;;;19.60;97.30;;;19.52;100.00;101010.47;5043138;28;20505;-76
2022/06/12 00:12:01;;;;;;;5.97;3.85;;;19.50;97.30;;;19.31;100.00;101015.09;5026881;28;20045;-77
2022/06/12 00:14:28;;;;;;;3.95;3.45;;;19.40;97.50;;;19.12;100.00;101010.66;5027852;28;20080;-78
2022/06/12 00:16:55;;;;;;;8.75;3.83;;;19.30;97.70;;;19.22;100.00;101011.94;5027347;28;20045;-76
2022/06/12 00:19:23;;;;;;;3.85;3.25;;;19.20;97.70;;;19.13;100.00;101007.94;5027470;28;20048;-77
2022/06/12 00:21:51;;;;;;;4.82;3.50;;;19.20;97.80;;;19.09;100.00;101003.69;5046268;28;20052;-77
2022/06/12 00:24:20;;;;;;;5.10;3.80;;;19.10;97.70;;;19.13;100.00;101009.75;5029890;28;20111;-78
2022/06/12 00:26:53;;;;;;;4.47;3.67;;;19.00;97.70;;;19.27;100.00;101020.56;5045445;28;20037;-77
2022/06/12 00:29:28;;;;;;;3.40;3.10;;;19.00;97.80;;;18.98;100.00;101008.66;5044336;28;20081;-77
2022/06/12 00:32:05;;;;;;;6.95;4.18;;;19.00;97.90;;;18.82;100.00;101027.22;5043043;28;20115;-77
2022/06/12 00:34:41;;;;;;;3.70;3.35;;;18.90;98.00;;;18.88;100.00;101018.91;5027465;28;20505;-77
2022/06/12 00:37:11;;;;;;;4.45;3.25;;;18.80;98.00;;;18.87;100.00;101021.66;5043681;28;20137;-78
2022/06/12 00:39:43;;;;;;;6.30;3.70;;;18.80;98.20;;;18.81;100.00;101018.34;5028424;28;20044;-77
2022/06/12 00:42:48;;;;;;;4.40;3.78;;;18.70;98.10;;;18.81;100.00;101023.69;5043129;28;20056;-78
2022/06/12 00:45:43;;;;;;;5.05;3.53;;;18.70;98.20;;;18.84;100.00;101018.19;5025093;28;20057;-77
2022/06/12 00:48:18;;;;;;;5.05;3.38;;;18.60;98.30;;;18.85;100.00;101019.06;5042990;28;20061;-76
2022/06/12 00:51:01;;;;;;;4.30;3.58;;;18.60;98.30;;;18.81;100.00;101025.47;5026351;28;20152;-77
2022/06/12 00:53:54;;;;;;;5.20;3.72;;;18.60;98.20;;;18.76;100.00;101032.84;5028229;28;20148;-77
2022/06/12 00:56:37;;;;;;;7.25;4.72;;;18.60;98.40;;;18.78;100.00;101023.84;5045007;28;20061;-78
2022/06/12 00:59:14;;;;;;;4.57;3.58;;;18.60;98.20;;;18.75;100.00;101028.44;5046725;28;20046;-77
2022/06/12 01:01:51;;;;;;;6.80;3.63;;;18.60;98.20;;;18.66;100.00;101033.28;5044813;28;20433;-77
2022/06/12 01:07:12;;;;;;;6.72;3.42;;;18.50;98.10;;;18.62;100.00;101025.50;5031323;28;20053;-78
2022/06/12 01:09:43;;;;;;;4.75;3.75;;;18.50;98.10;;;18.58;100.00;101038.09;5030109;28;20045;-77
2022/06/12 01:12:19;;;;;;;5.28;3.53;;;18.50;98.30;;;18.63;100.00;101038.75;5031217;28;20101;-78
2022/06/12 01:15:05;;;;;;;5.93;3.45;;;18.50;98.40;;;18.62;100.00;101031.69;5030369;28;20052;-77
2022/06/12 01:17:32;;;;;;;7.50;3.78;;;18.40;98.20;;;18.59;100.00;101023.00;5030776;28;20495;-77
2022/06/12 01:20:08;;;;;;;4.40;3.42;;;18.50;98.30;;;18.55;100.00;101031.09;5029840;28;20067;-77
2022/06/12 01:23:17;;;;;;;4.25;3.42;;;18.40;98.20;;;18.46;100.00;101033.34;5012116;28;20049;-77
2022/06/12 01:26:30;;;;;;;5.15;3.50;;;18.30;98.30;;;18.32;100.00;101024.19;5032060;28;20399;-77
2022/06/12 01:29:12;;;;;;;4.68;3.83;;;18.30;98.50;;;18.26;100.00;101022.69;5030650;28;20049;-78
2022/06/12 01:32:40;;;;;;;5.63;3.30;;;18.20;98.70;;;18.27;100.00;101018.22;5031626;28;20061;-78
2022/06/12 01:35:37;;;;;;;4.57;3.40;;;18.20;98.70;;;18.30;100.00;101020.72;5011946;28;20164;-77
2022/06/12 01:38:34;;;;;;;4.80;3.45;;;18.10;98.80;;;18.18;100.00;101015.97;5014762;28;20679;-78
2022/06/12 01:41:18;;;;;;;4.07;3.38;;;18.10;98.80;;;18.24;100.00;101013.88;5015647;28;20057;-77
2022/06/12 01:44:24;;;;;;;5.63;3.63;;;19.70;98.90;;;18.14;100.00;101026.75;5013197;28;20530;-78
2022/06/12 01:47:16;;;;;;;5.65;3.95;;;18.10;98.70;;;18.11;100.00;101018.91;5013954;28;20049;-77
2022/06/12 01:50:11;;;;;;;5.72;3.72;;;18.00;98.80;;;18.00;100.00;101019.38;5016535;28;20045;-76
2022/06/12 01:53:18;;;;;;;4.05;3.50;;;17.90;98.90;;;18.10;100.00;101013.66;5032291;28;20037;-77
2022/06/12 01:55:53;;;;;;;4.32;3.70;;;17.90;98.80;;;17.93;100.00;101009.91;5032404;28;20045;-78
2022/06/12 01:59:05;;;;;;;4.38;3.50;;;17.90;98.80;;;17.98;100.00;101015.03;5015089;28;20076;-77
2022/06/12 02:01:37;;;;;;;6.10;3.55;;;17.80;98.90;;;17.81;100.00;101010.50;5005823;28;20053;-77
2022/06/12 02:04:38;;;;;;;4.30;3.53;;;17.80;99.00;;;17.77;100.00;101019.53;5047643;28;20600;-78
2022/06/12 02:07:25;;;;;;;5.45;3.45;;;17.80;99.00;;;17.77;100.00;101015.06;5044486;28;20053;-77
2022/06/12 02:10:27;;;;;;;4.45;4.00;;;17.70;99.00;;;17.75;100.00;101014.28;5030237;28;20053;-77
2022/06/12 02:13:14;;;;;;;4.38;3.53;;;17.70;99.20;;;17.80;100.00;101012.28;5030837;28;20045;-77
2022/06/12 02:15:49;;;;;;;5.20;4.05;;;17.70;99.10;;;17.64;100.00;101013.88;5046120;28;20049;-78
2022/06/12 02:18:37;;;;;;;3.78;3.35;;;17.60;99.10;;;17.69;100.00;101015.41;5030177;28;20080;-76
2022/06/12 02:21:17;;;;;;;6.00;3.72;;;17.60;99.00;;;17.78;100.00;101015.91;5029987;28;20556;-76
2022/06/12 02:24:04;;;;;;;5.20;3.85;;;17.50;99.00;;;17.75;100.00;101013.41;5030738;28;20037;-76
2022/06/12 02:27:00;;;;;;;3.83;3.42;;;17.60;99.10;;;17.78;100.00;101007.94;5030852;28;20117;-77
2022/06/12 02:29:39;;;;;;;4.93;4.13;;;17.60;98.90;;;17.61;100.00;101012.22;5026981;28;20046;-77
2022/06/12 02:32:19;;;;;;;6.20;3.37;;;17.60;99.00;;;17.61;100.00;101012.22;5011796;28;20133;-77
2022/06/12 02:34:56;;;;;;;4.82;3.75;;;17.50;99.00;;;17.51;100.00;101021.53;5011277;28;20049;-76
2022/06/12 02:37:35;;;;;;;6.60;3.90;;;17.50;99.20;;;17.44;100.00;101018.28;4979404;28;20041;-77
2022/06/12 02:40:17;;;;;;;6.32;4.15;;;17.40;99.40;;;17.47;100.00;101009.28;5010498;28;20478;-77
2022/06/12 02:42:48;;;;;;;5.65;3.88;;;17.40;99.30;;;17.41;100.00;101016.59;4996496;28;20038;-77
2022/06/12 02:45:28;;;;;;;5.03;3.88;;;17.40;99.20;;;17.34;100.00;101016.91;5011097;28;20137;-78
2022/06/12 02:47:55;;;;;;;7.03;3.67;;;17.60;99.20;;;17.34;100.00;101017.78;4996164;28;20056;-78
2022/06/12 02:50:25;;;;;;;5.28;4.50;;;18.70;99.70;;;17.40;100.00;101021.97;4994621;28;20063;-78
2022/06/12 02:53:20;;;;;;;7.35;3.88;;;17.30;99.30;;;17.40;100.00;101028.16;5011927;28;20045;-78
2022/06/12 02:56:05;;;;;;;6.15;3.92;;;17.20;99.30;;;17.33;100.00;101026.72;4996782;28;20049;-77
2022/06/12 02:59:18;;;;;;;5.00;4.13;;;17.90;99.50;;;17.22;100.00;101024.47;5000067;28;20392;-78
2022/06/12 03:02:11;;;;;;;9.10;3.53;;;17.20;99.40;;;17.27;100.00;101024.28;5021082;28;20049;-78
2022/06/12 03:04:58;;;;;;;4.15;3.72;;;17.20;99.30;;;17.23;100.00;101028.84;5007251;28;20127;-78
2022/06/12 03:07:26;;;;;;;4.15;3.85;;;17.10;99.30;;;17.20;100.00;101030.81;5047476;28;20037;-77
2022/06/12 03:09:53;;;;;;;10.55;4.53;;;17.10;99.40;;;17.19;100.00;101021.09;5029103;28;20052;-78
2022/06/12 03:12:20;;;;;;;8.23;3.72;;;17.10;99.50;;;17.07;100.00;101025.09;5032244;28;20037;-78
2022/06/12 03:14:52;;;;;;;3.83;3.45;;;17.00;99.60;;;17.07;100.00;101027.75;5017221;28;20120;-78
2022/06/12 03:17:19;;;;;;;4.60;3.92;;;18.00;99.80;;;16.98;100.00;101032.50;5011137;28;20491;-78
2022/06/12 03:19:54;;;;;;;5.43;3.50;;;17.10;99.70;;;17.01;100.00;101028.88;5007571;28;20060;-76
2022/06/12 03:22:46;;;;;;;4.88;3.90;;;16.90;99.70;;;17.06;100.00;101026.03;5008750;28;20150;-77
2022/06/12 03:25:30;;;;;;;6.18;3.90;;;16.90;99.50;;;17.06;100.00;101034.88;5007911;28;20058;-78
2022/06/12 03:28:03;;;;;;;5.65;3.95;;;16.90;99.50;;;17.00;100.00;101025.38;4991779;28;20057;-77
2022/06/12 03:30:50;;;;;;;5.13;3.65;;;16.90;99.70;;;17.12;100.00;101033.78;5004229;28;20088;-78
2022/06/12 03:33:48;;;;;;;5.75;4.20;;;16.90;99.60;;;17.04;100.00;101041.19;4996427;28;20456;-77
2022/06/12 03:36:25;;;;;;;5.13;3.88;;;16.90;99.80;;;16.98;100.00;101037.81;5028794;28;20041;-76
2022/06/12 03:39:11;;;;;;;5.18;3.30;;;16.90;99.40;;;16.90;100.00;101039.91;5029409;28;20049;-79
2022/06/12 03:42:05;;;;;;;4.47;3.60;;;16.90;99.60;;;16.94;100.00;101041.53;5030337;28;20414;-77
2022/06/12 03:44:54;;;;;;;4.55;3.55;;;17.70;99.80;;;16.96;100.00;101042.34;5012790;28;20129;-78
2022/06/12 03:48:32;;;;;;;5.30;3.85;;;16.80;99.60;;;16.90;100.00;101047.88;5030520;28;20049;-78
2022/06/12 03:51:36;;;;;;;4.05;3.70;;;16.80;99.70;;;16.80;100.00;101050.03;5001882;28;20053;-79
2022/06/12 03:54:32;;;;;;;4.00;3.60;;;17.50;99.80;;;16.94;100.00;101056.59;4984509;28;20050;-77
2022/06/12 04:00:16;;;;;;;8.57;3.97;;;16.80;99.80;;;16.93;100.00;101050.41;5040736;28;20064;-77
2022/06/12 04:02:57;;;;;;;4.10;3.60;;;16.80;99.90;;;17.03;100.00;101048.31;5030378;28;20053;-79
2022/06/12 04:05:32;;;;;;;4.40;3.38;;;16.80;99.70;;;16.96;100.00;101052.09;5047971;28;20413;-77
2022/06/12 04:08:01;;;;;;;4.70;3.60;;;16.80;99.90;;;17.10;100.00;101056.91;5031803;28;20045;-77
2022/06/12 04:10:34;;;;;;;4.97;3.80;;;16.90;99.80;;;17.10;100.00;101057.75;5030621;28;20044;-80
2022/06/12 04:13:03;;;;;;;3.97;3.38;;;17.20;99.90;;;17.10;100.00;101048.94;5010962;28;20144;-78
2022/06/12 04:16:03;;;;;;;6.70;4.30;;;17.60;99.90;;;17.10;100.00;101052.44;5012196;28;20046;-79
2022/06/12 04:18:32;;;;;;;4.25;3.85;;;16.90;99.90;;;17.10;100.00;101055.09;5014369;28;20064;-79
2022/06/12 04:21:16;;;;;;;4.78;4.10;;;16.90;99.90;;;17.18;100.00;101053.94;5043703;28;20513;-79
2022/06/12 04:23:53;;;;;;;4.53;3.85;;;18.20;99.90;;;17.27;100.00;101057.06;4995113;28;20053;-79
2022/06/12 04:26:43;;;;;;;5.28;4.03;;;17.30;99.90;;;17.22;100.00;101055.53;4997312;28;20486;-80
2022/06/12 04:29:13;;;;;;;6.05;3.80;;;17.10;99.90;;;17.29;100.00;101070.28;5030213;28;20064;-81
2022/06/12 04:31:45;;;;;;;6.38;4.57;;;17.00;99.90;;;17.29;100.00;101067.63;5034823;28;20116;-80
2022/06/12 04:34:24;;;;;;;5.40;4.10;;;17.10;99.90;;;17.30;100.00;101061.38;5033531;28;20530;-80
2022/06/12 04:36:57;;;;;;;4.38;3.97;;;17.10;99.90;;;17.32;100.00;101058.66;5001058;28;20119;-78
2022/06/12 04:39:31;;;;;;;5.88;3.83;;;17.10;99.80;;;17.41;100.00;101061.81;5015365;28;20049;-79
2022/06/12 04:42:00;;;;;;;4.45;4.05;;;17.20;99.90;;;17.45;100.00;101067.88;5032740;28;20581;-79
2022/06/12 04:44:28;;;;;;;5.18;4.00;;;17.20;99.90;;;17.50;100.00;101073.00;5017282;28;20052;-79
2022/06/12 04:47:00;;;;;;;5.07;4.22;;;17.20;99.90;;;17.62;100.00;101064.47;5017322;28;20049;-78
2022/06/12 04:49:30;;;;;;;4.45;3.47;;;17.30;99.90;;;17.71;100.00;101068.56;5031034;28;20057;-79
2022/06/12 04:52:00;;;;;;;6.28;4.00;;;17.80;99.90;;;17.64;100.00;101067.97;5031773;28;20045;-78
2022/06/12 04:54:29;;;;;;;6.95;3.83;;;17.40;99.90;;;17.70;100.00;101065.03;5031158;28;20087;-78
2022/06/12 04:56:58;;;;;;;4.53;4.13;;;17.40;99.90;;;17.77;100.00;101075.41;5029620;28;20581;-79
2022/06/12 04:59:26;;;;;;;4.45;3.53;;;17.50;99.90;;;17.74;100.00;101073.75;5041737;28;20561;-77
2022/06/12 05:01:53;;;;;;;5.35;4.45;;;17.60;99.90;;;17.75;100.00;101069.28;5031956;28;20862;-77
2022/06/12 05:04:24;;;;;;;4.68;4.15;;;17.60;99.90;;;17.86;100.00;101070.53;5031381;28;20041;-79
2022/06/12 05:06:52;;;;;;;5.57;3.67;;;17.60;99.90;;;18.02;100.00;101066.38;5035770;28;20053;-77
2022/06/12 05:09:24;;;;;;;5.35;4.05;;;17.70;99.60;;;18.09;100.00;101058.06;5023326;28;20046;-78
2022/06/12 05:11:52;;;;;;;4.70;4.20;;;17.70;99.70;;;18.18;100.00;101054.13;5013116;28;20060;-76
2022/06/12 05:14:20;;;;;;;4.65;3.55;;;17.80;99.60;;;18.28;100.00;101062.56;5028493;28;20581;-75
2022/06/12 05:16:56;;;;;;;6.88;4.13;;;17.90;99.70;;;18.36;100.00;101062.22;5011562;28;20572;-77
2022/06/12 05:19:29;;;;;;;5.95;3.85;;;18.00;99.80;;;18.46;100.00;101059.97;5010050;28;20045;-78
2022/06/12 05:21:57;;;;;;;5.88;3.80;;;18.00;99.50;;;18.48;100.00;101058.09;5006632;28;20065;-78
2022/06/12 05:24:24;;;;;;;5.32;4.20;;;18.10;99.80;;;18.52;100.00;101059.72;5027956;28;20493;-80
2022/06/12 05:26:52;;;;;;;8.60;4.55;;;18.20;99.30;;;18.55;100.00;101056.91;5019346;28;20776;-78
2022/06/12 05:29:29;;;;;;;7.93;3.90;;;18.20;99.50;;;18.67;100.00;101064.34;5021737;28;20049;-79
2022/06/12 05:31:57;;;;;;;6.18;4.22;;;18.30;99.40;;;18.69;100.00;101062.44;5061122;28;20059;-79
2022/06/12 05:34:26;;;;;;;4.68;3.67;;;18.40;99.20;;;18.77;100.00;101072.75;5061992;28;20064;-79
2022/06/12 05:36:54;;;;;;;5.07;3.75;;;18.40;99.50;;;18.80;100.00;101067.28;5042041;28;20041;-79
2022/06/12 05:39:21;;;;;;;4.35;3.70;;;18.60;99.60;;;18.82;100.00;101068.06;5028378;28;20049;-79
2022/06/12 05:41:50;;;;;;;4.43;3.72;;;18.50;99.40;;;18.93;100.00;101066.69;5025535;28;20103;-80
2022/06/12 05:44:17;;;;;;;6.72;4.07;;;18.50;99.00;;;18.99;100.00;101067.28;5043194;28;20053;-79
2022/06/12 05:46:45;;;;;;;5.45;3.40;;;19.80;99.40;;;19.01;100.00;101077.03;5027243;28;20050;-77
2022/06/12 05:49:13;;;;;;;6.10;4.00;;;18.60;99.30;;;19.13;100.00;101063.09;5025396;28;20045;-79
2022/06/12 05:51:41;;;;;;;4.22;3.70;;;18.70;99.20;;;19.19;100.00;101062.78;5025692;28;20077;-80
2022/06/12 05:54:10;;;;;;;5.53;4.25;;;18.80;99.50;;;19.23;100.00;101056.34;5026448;28;20045;-79
2022/06/12 05:56:39;;;;;;;5.10;3.95;;;18.80;99.10;;;19.29;100.00;101052.50;5045405;28;20092;-80
2022/06/12 05:59:06;;;;;;;6.97;4.20;;;18.90;99.20;;;19.37;100.00;101061.00;5024839;28;20129;-80
2022/06/12 06:01:33;;;;;;;6.22;4.07;;;18.90;99.30;;;19.44;100.00;101058.91;5016255;28;20184;-80
2022/06/12 06:04:00;;;;;;;5.78;4.20;;;19.00;99.00;;;19.52;100.00;101066.53;5030921;28;20720;-80
2022/06/12 06:06:36;;;;;;;6.55;4.43;;;19.10;99.00;;;19.50;100.00;101058.56;5046231;28;20140;-82
2022/06/12 06:09:05;;;;;;;5.90;4.20;;;19.10;99.10;;;19.55;100.00;101064.53;5045591;28;20355;-81
2022/06/12 06:11:33;;;;;;;5.68;3.80;;;19.20;98.90;;;19.50;100.00;101063.91;5030745;28;20053;-81
2022/06/12 06:14:00;;;;;;;5.90;4.38;;;19.20;99.20;;;19.61;100.00;101070.53;5030692;28;20056;-81
2022/06/12 06:16:27;;;;;;;9.07;4.60;;;19.40;99.30;;;19.68;100.00;101062.13;5046883;28;20041;-81
2022/06/12 06:18:55;;;;;;;6.35;4.57;;;19.40;99.40;;;19.74;100.00;101066.25;5029502;28;20034;-81
2022/06/12 06:21:22;;;;;;;4.85;4.22;;;19.40;99.30;;;19.79;100.00;101060.69;5046574;28;20048;-77
2022/06/12 06:23:49;;;;;;;10.07;4.78;;;19.50;99.10;;;19.92;100.00;101061.81;5030117;28;20501;-78
2022/06/12 06:26:17;;;;;;;5.45;4.38;;;19.50;99.40;;;20.00;100.00;101072.09;5046147;28;20052;-77
2022/06/12 06:28:48;;;;;;;4.95;4.25;;;19.60;99.20;;;20.00;100.00;101069.41;5014066;28;20050;-79
2022/06/12 06:31:15;;;;;;;;;;;19.70;99.10;;;20.19;100.00;101071.09;5048094;28;20128;-79
2022/06/12 06:33:42;;;;;;;4.90;4.30;;;19.70;99.00;;;20.21;100.00;101064.75;5014551;28;20079;-79
2022/06/12 06:36:15;;;;;;;4.65;3.92;;;20.70;99.10;;;20.28;100.00;101062.59;5046971;28;20041;-80
2022/06/12 06:38:43;;;;;;;7.50;4.90;;;19.90;99.20;;;20.35;100.00;101061.31;5031775;28;20091;-80
2022/06/12 06:41:10;;;;;;;8.27;5.20;;;19.90;98.90;;;20.46;100.00;101065.22;5031818;28;20101;-80
2022/06/12 06:46:23;;;;;;;9.93;4.85;;;20.10;98.70;;;20.64;100.00;101063.34;5016839;28;20080;-79
2022/06/12 06:48:50;;;;;;;5.47;4.32;;;20.10;98.80;;;20.73;100.00;101061.97;5022971;28;20430;-79
2022/06/12 06:51:18;;;;;;;5.60;4.13;;;20.20;98.60;;;20.79;100.00;101061.63;5011675;28;20125;-79
2022/06/12 06:53:45;;;;;;;7.10;3.95;;;20.30;98.70;;;20.85;100.00;101061.31;4994252;28;20049;-79
2022/06/12 06:56:12;;;;;;;5.35;4.10;;;20.40;98.60;;;20.89;100.00;101053.97;4993985;28;20053;-79
2022/06/12 06:58:39;;;;;;;8.23;4.72;;;20.50;98.60;;;20.95;100.00;101057.16;5016193;28;20044;-78
2022/06/12 07:01:07;;;;;;;7.03;4.40;;;20.50;98.30;;;21.05;100.00;101059.31;5049571;28;20044;-78
2022/06/12 07:03:41;;;;;;;7.32;4.57;;;20.50;98.00;;;21.10;100.00;101055.44;5041475;28;20080;-79
2022/06/12 07:06:12;;;;;;;7.85;5.15;;;20.60;98.40;;;21.18;100.00;101054.13;5029310;28;20049;-79
2022/06/12 07:08:39;;;;;;;9.00;4.75;;;20.70;98.20;;;21.24;100.00;101054.63;5030556;28;20573;-78
2022/06/12 07:11:06;;;;;;;6.15;4.15;;;21.10;98.10;;;21.37;100.00;101048.56;5028417;28;20064;-78
2022/06/12 07:13:34;;;;;;;8.38;4.75;;;20.90;98.10;;;21.43;100.00;101063.41;5029495;28;20057;-79
2022/06/12 07:16:01;;;;;;;6.95;5.43;;;21.00;97.90;;;21.47;100.00;101065.81;5027361;28;20045;-78
2022/06/12 07:18:28;;;;;;;7.55;4.10;;;21.00;97.80;;;21.53;100.00;101060.06;5012811;28;20495;-77
2022/06/12 07:21:01;;;;;;;6.63;4.38;;;21.00;97.80;;;21.58;100.00;101059.81;5027240;28;20044;-79
2022/06/12 07:23:30;;;;;;;6.03;4.15;;;21.10;97.80;;;21.71;100.00;101059.97;5028670;28;20041;-78
2022/06/12 07:26:04;;;;;;;6.93;3.92;;;21.20;97.80;;;21.78;100.00;101055.09;5012102;28;20514;-77
2022/06/12 07:28:34;;;;;;;7.60;4.47;;;21.20;97.80;;;21.79;100.00;101048.78;5028895;28;20139;-78
2022/06/12 07:31:04;;;;;;;7.72;4.07;;;21.30;97.70;;;21.92;100.00;101048.88;5011893;28;20107;-80
2022/06/12 07:33:31;;;;;;;5.15;3.92;;;21.30;97.70;;;22.00;100.00;101043.06;5037691;28;20047;-79
2022/06/12 07:35:59;;;;;;;6.35;4.32;;;21.40;97.50;;;22.10;100.00;101045.09;5012017;28;20076;-78
2022/06/12 07:38:28;;;;;;;5.38;3.60;;;21.50;97.50;;;22.19;100.00;101040.97;5012654;28;20050;-78
2022/06/12 07:41:01;;;;;;;5.57;3.72;;;21.60;97.60;;;22.26;100.00;101051.31;5028437;28;20059;-78
2022/06/12 07:43:34;;;;;;;6.38;3.83;;;21.60;97.30;;;22.25;100.00;101042.41;5013038;28;20045;-79
2022/06/12 07:46:04;;;;;;;5.57;3.70;;;21.70;97.10;;;22.29;100.00;101040.38;5012677;28;20051;-78
2022/06/12 07:48:32;;;;;;;8.23;4.55;;;21.80;97.10;;;22.42;100.00;101048.53;5029120;28;20053;-79
2022/06/12 07:51:02;;;;;;;8.73;3.90;;;21.80;97.00;;;22.65;100.00;101039.91;5027784;28;20632;-78
2022/06/12 07:53:30;;;;;;;5.65;3.83;;;22.00;96.90;;;22.63;100.00;101033.78;5011961;28;20057;-78
2022/06/12 07:55:58;;;;;;;5.93;3.95;;;22.10;96.90;;;22.78;100.00;101037.28;5028122;28;20053;-77
2022/06/12 07:58:26;;;;;;;4.85;3.92;;;22.10;96.80;;;22.86;100.00;101028.72;5012116;28;20046;-78
2022/06/12 08:00:58;;;;;;;5.95;3.42;;;22.20;96.80;;;22.94;100.00;101034.47;5026439;28;20044;-79
2022/06/12 08:03:26;;;;;;;13.38;4.30;;;22.30;96.70;;;23.07;100.00;101030.97;5027419;28;20044;-79
2022/06/12 08:05:54;;;;;;;9.63;4.13;;;22.40;96.60;;;23.12;100.00;101028.81;5033892;28;20602;-78
2022/06/12 08:08:21;;;;;;;5.63;3.42;;;22.50;96.40;;;23.18;100.00;101024.88;5053861;28;20048;-78
2022/06/12 08:10:48;;;;;;;6.63;3.70;;;22.50;96.10;;;23.28;100.00;101020.66;5052332;28;20095;-78
2022/06/12 08:13:16;;;;;;;6.05;3.75;;;22.60;96.30;;;23.44;100.00;101015.06;5036311;28;20045;-77
2022/06/12 08:15:46;;;;;;;6.65;4.15;;;22.70;96.40;;;23.42;100.00;101008.13;5024534;28;20120;-78
2022/06/12 08:18:15;;;;;;;6.95;3.38;;;22.80;96.20;;;23.51;100.00;101008.34;5042350;28;20045;-78
2022/06/12 08:20:50;;;;;;;4.72;4.10;;;22.80;96.00;;;23.56;100.00;101013.38;5025326;28;20430;-78
2022/06/12 08:23:39;;;;;;;5.43;3.75;;;22.90;96.00;;;23.58;100.00;101014.16;5040801;28;20038;-78
2022/06/12 08:26:19;;;;;;;5.85;4.05;;;23.00;95.50;;;23.68;100.00;101013.50;5025936;28;20751;-78
2022/06/12 08:28:53;;;;;;;7.38;3.60;;;23.10;95.50;;;23.71;100.00;101008.78;5038118;28;20128;-77
2022/06/12 08:31:38;;;;;;;6.05;3.47;;;23.20;95.30;;;23.76;100.00;101011.16;5036144;28;20663;-77
2022/06/12 08:34:15;;;;;;;5.13;3.60;;;23.20;95.10;;;23.87;100.00;101023.81;5054832;28;20045;-77
2022/06/12 08:36:42;;;;;;;4.93;3.13;;;23.30;95.00;;;23.90;100.00;101015.53;5040767;28;20116;-78
2022/06/12 08:39:10;;;;;;;6.38;3.58;;;23.40;94.80;;;23.93;100.00;101018.88;5047124;28;20485;-79
2022/06/12 08:42:10;;;;;;;5.18;3.38;;;23.40;94.60;;;24.00;100.00;101005.88;5037914;28;20056;-79
2022/06/12 08:45:10;;;;;;;4.00;3.25;;;23.40;94.80;;;24.04;100.00;101007.41;5018756;28;20125;-79
2022/06/12 08:48:05;;;;;;;4.95;3.15;;;23.40;94.70;;;24.14;100.00;101009.44;5001371;28;20099;-79
2022/06/12 08:50:45;;;;;;;9.60;3.65;;;23.50;94.80;;;24.25;100.00;101008.66;5020440;28;20077;-78
2022/06/12 08:53:45;;;;;;;7.95;3.60;;;23.60;94.70;;;24.47;100.00;100999.91;5052762;28;20469;-78
2022/06/12 08:56:31;;;;;;;6.13;3.65;;;23.70;95.30;;;24.50;100.00;100996.97;5038033;28;20046;-78
2022/06/12 08:59:03;;;;;;;3.78;3.10;;;23.80;94.60;;;24.57;100.00;100989.31;5036383;28;20048;-78
2022/06/12 09:01:30;;;;;;;3.15;2.80;;;23.90;94.40;;;24.63;99.72;100995.13;5044187;28;20124;-78
2022/06/12 09:03:57;;;;;;;6.47;3.03;;;23.90;94.00;;;24.74;100.00;100997.00;5036611;28;20069;-77
2022/06/12 09:06:50;;;;;;;3.92;3.10;;;24.00;94.20;;;24.80;100.00;100987.66;5031433;28;20053;-76
2022/06/12 09:09:37;;;;;;;4.57;2.83;;;24.10;94.10;;;24.85;100.00;100981.94;5030486;28;20422;-76
2022/06/12 09:12:23;;;;;;;6.03;3.55;;;24.20;94.00;;;24.98;98.02;100985.41;5026900;28;20058;-76
2022/06/12 09:15:18;;;;;;;4.40;3.10;;;24.30;93.80;;;25.01;94.48;100985.19;5036936;28;20574;-76
2022/06/12 09:17:54;;;;;;;5.25;3.08;;;24.40;93.30;;;25.14;94.39;100986.94;5010387;28;20068;-76
2022/06/12 09:20:43;;;;;;;5.72;3.17;;;24.40;93.30;;;25.20;88.05;100973.00;5017671;28;20037;-78
2022/06/12 09:23:52;;;;;;;4.72;3.30;;;24.50;92.60;;;25.28;80.26;100967.88;5035795;28;20128;-78
2022/06/12 09:26:54;;;;;;;5.38;2.80;;;24.70;91.80;;;25.43;81.97;100971.22;5024818;28;20792;-78
2022/06/12 09:29:56;;;;;;;4.63;2.42;;;24.70;91.70;;;25.59;82.63;100964.69;5035403;28;20049;-78
2022/06/12 09:32:27;;;;;;;3.58;2.13;;;24.90;91.90;;;25.60;76.46;100967.25;5052104;28;20041;-78
2022/06/12 09:35:29;;;;;;;2.78;2.15;;;24.90;91.00;;;25.73;71.28;100966.28;5038207;28;20223;-78
2022/06/12 09:38:18;;;;;;;3.78;1.90;;;25.00;90.40;;;25.84;74.12;100971.66;5051156;28;20049;-78
2022/06/12 09:41:20;;;;;;;5.25;2.47;;;25.10;90.70;;;25.85;72.47;100959.91;5014547;28;20045;-76
2022/06/12 09:44:12;;;;;;;2.92;1.90;;;25.20;90.40;;;26.01;72.17;100966.78;5007176;28;20137;-78
2022/06/12 09:47:11;;;;;;;6.72;2.80;;;25.30;90.50;;;26.16;70.65;100964.69;5009618;28;20049;-77
2022/06/12 09:50:09;;;;;;;3.58;2.28;;;25.50;90.10;;;26.22;64.62;100958.81;5008925;28;20052;-76
2022/06/12 09:52:58;;;;;;;3.83;2.38;;;25.60;88.50;;;26.27;65.94;100955.75;5012435;28;20516;-77
2022/06/12 09:55:44;;;;;;;2.95;2.20;;;25.60;88.40;;;26.37;71.85;100950.47;5050374;28;20614;-77
2022/06/12 09:58:33;;;;;;;3.33;2.05;;;25.70;89.50;;;26.46;68.90;100949.72;5022036;28;20076;-77
2022/06/12 10:01:26;;;;;;;5.32;2.42;;;25.70;89.00;;;26.45;70.03;100950.66;5006208;28;20053;-76
2022/06/12 10:04:00;;;;;;;3.25;2.10;;;25.80;89.80;;;26.38;70.51;100950.34;5010542;28;20185;-76
2022/06/12 10:06:37;;;;;;;3.30;1.90;;;25.80;88.80;;;26.38;66.16;100944.94;5025844;28;20325;-78
2022/06/12 10:09:30;;;;;;;4.80;3.15;;;25.80;87.80;;;26.34;72.12;100935.38;5010245;28;20149;-79
2022/06/12 10:12:12;;;;;;;5.45;2.38;;;25.80;88.90;;;26.31;69.92;100931.13;5011616;28;20038;-78
2022/06/12 10:14:52;;;;;;;3.67;2.10;;;25.80;88.40;;;26.57;63.83;100930.78;4997264;28;20049;-75
2022/06/12 10:17:35;;;;;;;7.72;2.63;;;25.50;86.80;;;26.69;60.96;100931.56;5027154;28;20522;-76
2022/06/12 10:20:11;;;;;;;4.53;2.30;;;25.90;86.70;;;26.74;59.52;100925.81;5023889;28;20069;-76
2022/06/12 10:22:47;;;;;;;3.38;1.90;;;26.00;85.40;;;26.88;58.20;100922.00;5010807;28;20069;-76
2022/06/12 10:25:34;;;;;;;4.13;2.15;;;26.10;84.80;;;27.07;58.27;100923.13;5013880;28;20049;-79
2022/06/12 10:28:18;;;;;;;3.80;1.90;;;26.30;85.10;;;27.18;51.22;100923.91;5013755;28;20057;-80
2022/06/12 10:31:05;;;;;;;4.55;2.15;;;26.40;81.40;;;27.28;48.58;100925.81;5014527;28;20045;-80
2022/06/12 10:33:46;;;;;;;4.15;2.05;;;26.60;79.90;;;27.40;49.25;100924.75;5012561;28;20050;-80
2022/06/12 10:36:33;;;;;;;4.47;2.28;;;26.70;79.30;;;27.60;47.66;100914.06;4996892;28;20093;-80
2022/06/12 10:39:20;;;;;;;7.20;1.73;;;26.80;78.10;;;27.73;49.73;100905.72;4998115;28;20057;-79
2022/06/12 10:41:59;;;;;;;4.18;2.13;;;27.00;79.20;;;27.77;46.17;100912.56;5024340;28;20529;-80
2022/06/12 10:45:04;;;;;;;3.72;2.08;;;27.00;76.50;;;27.70;45.49;100892.47;4987909;28;20053;-79
2022/06/12 10:48:23;;;;;;;5.72;2.25;;;27.10;75.50;;;28.01;46.29;100898.69;5023731;28;20493;-79
2022/06/12 10:51:02;;;;;;;3.45;1.80;;;27.20;76.60;;;28.01;44.61;100895.97;5035610;28;20513;-79
2022/06/12 10:53:32;;;;;;;4.45;2.05;;;27.40;74.30;;;28.02;44.67;100892.31;5015621;28;20069;-79
2022/06/12 10:56:08;;;;;;;3.70;1.55;;;27.40;73.80;;;28.01;43.27;100884.31;5015014;28;20104;-78
2022/06/12 10:59:02;;;;;;;;;;;27.40;72.10;;;28.20;40.19;100883.56;5032270;28;20045;-79
2022/06/12 11:01:41;;;;;;;5.22;2.35;;;27.50;68.80;;;28.39;40.41;100885.41;4995627;28;19936;-78
2022/06/12 11:04:26;;;;;;;11.30;7.57;;;27.70;69.00;;;28.31;40.90;100880.69;5011605;28;20501;-79